sensor_id;sensor_type;location;lat;lon;timestamp;P1;durP1;ratioP1;P2;durP2;ratioP2
45011;SDS011;63444;48.148;11.542;2024-03-23T00:55:56;2.97;;;1.50;;
45011;SDS011;63444;48.148;11.542;2024-03-23T00:58:22;2.87;;;1.70;;
45011;SDS011;63444;48.148;11.542;2024-03-23T01:00:49;1.60;;;1.50;;
45011;SDS011;63444;48.148;11.542;2024-03-23T01:03:16;3.40;;;1.63;;
45011;SDS011;63444;48.148;11.542;2024-03-23T01:05:41;2.03;;;1.70;;
45011;SDS011;63444;48.148;11.542;2024-03-23T01:08:07;2.63;;;1.80;;
45011;SDS011;63444;48.148;11.542;2024-03-23T01:10:33;2.47;;;1.50;;
45011;SDS011;63444;48.148;11.542;2024-03-23T01:13:00;2.40;;;1.90;;
45011;SDS011;63444;48.148;11.542;2024-03-23T01:15:26;1.87;;;1.60;;
45011;SDS011;63444;48.148;11.542;2024-03-23T01:17:52;2.23;;;1.60;;
45011;SDS011;63444;48.148;11.542;2024-03-23T01:20:18;1.60;;;1.50;;
45011;SDS011;63444;48.148;11.542;2024-03-23T01:22:44;1.60;;;1.50;;
45011;SDS011;63444;48.148;11.542;2024-03-23T01:25:10;2.93;;;1.53;;
45011;SDS011;63444;48.148;11.542;2024-03-23T01:27:35;4.23;;;1.57;;
45011;SDS011;63444;48.148;11.542;2024-03-23T01:30:01;1.50;;;1.40;;
45011;SDS011;63444;48.148;11.542;2024-03-23T01:32:27;2.20;;;1.80;;
45011;SDS011;63444;48.148;11.542;2024-03-23T01:34:56;1.77;;;1.50;;
45011;SDS011;63444;48.148;11.542;2024-03-23T01:37:21;2.77;;;1.50;;
45011;SDS011;63444;48.148;11.542;2024-03-23T01:39:47;1.80;;;1.57;;
45011;SDS011;63444;48.148;11.542;2024-03-23T01:42:13;1.60;;;1.50;;
45011;SDS011;63444;48.148;11.542;2024-03-23T01:44:38;3.17;;;1.77;;
45011;SDS011;63444;48.148;11.542;2024-03-23T01:47:04;2.23;;;1.80;;
45011;SDS011;63444;48.148;11.542;2024-03-23T01:49:32;2.20;;;1.43;;
45011;SDS011;63444;48.148;11.542;2024-03-23T01:51:58;2.73;;;1.70;;
45011;SDS011;63444;48.148;11.542;2024-03-23T01:54:25;1.70;;;1.60;;
45011;SDS011;63444;48.148;11.542;2024-03-23T01:56:50;2.17;;;1.80;;
45011;SDS011;63444;48.148;11.542;2024-03-23T01:59:16;1.60;;;1.50;;
45011;SDS011;63444;48.148;11.542;2024-03-23T02:01:42;1.93;;;1.47;;
45011;SDS011;63444;48.148;11.542;2024-03-23T02:04:07;2.67;;;1.60;;
45011;SDS011;63444;48.148;11.542;2024-03-23T02:06:34;2.43;;;1.70;;
45011;SDS011;63444;48.148;11.542;2024-03-23T02:09:01;1.43;;;1.33;;
45011;SDS011;63444;48.148;11.542;2024-03-23T02:11:28;2.63;;;1.67;;
45011;SDS011;63444;48.148;11.542;2024-03-23T02:13:54;2.27;;;1.60;;
45011;SDS011;63444;48.148;11.542;2024-03-23T02:16:20;3.57;;;1.80;;
45011;SDS011;63444;48.148;11.542;2024-03-23T02:18:45;2.60;;;1.63;;
45011;SDS011;63444;48.148;11.542;2024-03-23T02:21:11;1.50;;;1.40;;
45011;SDS011;63444;48.148;11.542;2024-03-23T02:23:37;2.23;;;1.77;;
45011;SDS011;63444;48.148;11.542;2024-03-23T02:26:02;1.70;;;1.60;;
45011;SDS011;63444;48.148;11.542;2024-03-23T02:28:28;2.03;;;1.40;;
45011;SDS011;63444;48.148;11.542;2024-03-23T02:30:54;2.10;;;1.50;;
45011;SDS011;63444;48.148;11.542;2024-03-23T02:33:20;1.87;;;1.63;;
45011;SDS011;63444;48.148;11.542;2024-03-23T02:35:45;2.80;;;1.50;;
45011;SDS011;63444;48.148;11.542;2024-03-23T02:38:12;1.67;;;1.50;;
45011;SDS011;63444;48.148;11.542;2024-03-23T02:40:38;1.63;;;1.27;;
45011;SDS011;63444;48.148;11.542;2024-03-23T02:43:03;1.70;;;1.33;;
45011;SDS011;63444;48.148;11.542;2024-03-23T02:45:29;1.67;;;1.50;;
45011;SDS011;63444;48.148;11.542;2024-03-23T02:47:55;1.50;;;1.40;;
45011;SDS011;63444;48.148;11.542;2024-03-23T02:50:21;2.67;;;1.70;;
45011;SDS011;63444;48.148;11.542;2024-03-23T02:52:48;2.43;;;1.60;;
45011;SDS011;63444;48.148;11.542;2024-03-23T02:55:14;1.67;;;1.57;;
45011;SDS011;63444;48.148;11.542;2024-03-23T02:57:40;1.57;;;1.47;;
45011;SDS011;63444;48.148;11.542;2024-03-23T03:00:07;2.07;;;1.60;;
45011;SDS011;63444;48.148;11.542;2024-03-23T03:02:34;1.77;;;1.40;;
45011;SDS011;63444;48.148;11.542;2024-03-23T03:04:59;2.43;;;1.50;;
45011;SDS011;63444;48.148;11.542;2024-03-23T03:07:25;1.60;;;1.50;;
45011;SDS011;63444;48.148;11.542;2024-03-23T03:09:51;1.67;;;1.50;;
45011;SDS011;63444;48.148;11.542;2024-03-23T03:12:17;1.83;;;1.60;;
45011;SDS011;63444;48.148;11.542;2024-03-23T03:14:43;1.60;;;1.50;;
45011;SDS011;63444;48.148;11.542;2024-03-23T03:17:09;1.70;;;1.60;;
45011;SDS011;63444;48.148;11.542;2024-03-23T03:19:36;2.60;;;1.70;;
45011;SDS011;63444;48.148;11.542;2024-03-23T03:22:01;1.70;;;1.53;;
45011;SDS011;63444;48.148;11.542;2024-03-23T03:24:29;3.17;;;1.60;;
45011;SDS011;63444;48.148;11.542;2024-03-23T03:26:55;1.50;;;1.40;;
45011;SDS011;63444;48.148;11.542;2024-03-23T03:29:23;1.83;;;1.60;;
45011;SDS011;63444;48.148;11.542;2024-03-23T03:31:50;1.70;;;1.60;;
45011;SDS011;63444;48.148;11.542;2024-03-23T03:34:16;2.23;;;1.60;;
45011;SDS011;63444;48.148;11.542;2024-03-23T03:36:41;2.23;;;1.77;;
45011;SDS011;63444;48.148;11.542;2024-03-23T03:39:07;1.97;;;1.40;;
45011;SDS011;63444;48.148;11.542;2024-03-23T03:41:33;2.90;;;1.80;;
45011;SDS011;63444;48.148;11.542;2024-03-23T03:44:00;1.97;;;1.70;;
45011;SDS011;63444;48.148;11.542;2024-03-23T03:46:27;1.70;;;1.60;;
45011;SDS011;63444;48.148;11.542;2024-03-23T03:48:56;2.90;;;1.70;;
45011;SDS011;63444;48.148;11.542;2024-03-23T03:51:22;2.90;;;1.73;;
45011;SDS011;63444;48.148;11.542;2024-03-23T03:53:48;2.23;;;1.73;;
45011;SDS011;63444;48.148;11.542;2024-03-23T03:56:13;3.33;;;1.83;;
45011;SDS011;63444;48.148;11.542;2024-03-23T03:58:39;2.10;;;1.80;;
45011;SDS011;63444;48.148;11.542;2024-03-23T04:01:08;2.10;;;1.90;;
45011;SDS011;63444;48.148;11.542;2024-03-23T04:03:34;1.60;;;1.50;;
45011;SDS011;63444;48.148;11.542;2024-03-23T04:06:00;1.93;;;1.63;;
45011;SDS011;63444;48.148;11.542;2024-03-23T04:08:26;1.77;;;1.63;;
45011;SDS011;63444;48.148;11.542;2024-03-23T04:10:51;3.53;;;1.80;;
45011;SDS011;63444;48.148;11.542;2024-03-23T04:13:17;2.23;;;1.90;;
45011;SDS011;63444;48.148;11.542;2024-03-23T04:15:43;3.43;;;2.00;;
45011;SDS011;63444;48.148;11.542;2024-03-23T04:18:08;3.20;;;1.90;;
45011;SDS011;63444;48.148;11.542;2024-03-23T04:20:34;5.67;;;1.80;;
45011;SDS011;63444;48.148;11.542;2024-03-23T04:23:00;3.17;;;1.70;;
45011;SDS011;63444;48.148;11.542;2024-03-23T04:25:26;1.77;;;1.67;;
45011;SDS011;63444;48.148;11.542;2024-03-23T04:27:51;2.63;;;1.90;;
45011;SDS011;63444;48.148;11.542;2024-03-23T04:30:17;2.67;;;2.00;;
45011;SDS011;63444;48.148;11.542;2024-03-23T04:32:44;2.47;;;1.70;;
45011;SDS011;63444;48.148;11.542;2024-03-23T04:35:10;1.60;;;1.50;;
45011;SDS011;63444;48.148;11.542;2024-03-23T04:37:36;1.70;;;1.60;;
45011;SDS011;63444;48.148;11.542;2024-03-23T04:40:02;1.87;;;1.60;;
45011;SDS011;63444;48.148;11.542;2024-03-23T04:42:32;2.17;;;1.77;;
45011;SDS011;63444;48.148;11.542;2024-03-23T04:44:58;2.03;;;1.77;;
45011;SDS011;63444;48.148;11.542;2024-03-23T04:47:23;2.53;;;1.70;;
45011;SDS011;63444;48.148;11.542;2024-03-23T04:49:49;2.27;;;1.30;;
45011;SDS011;63444;48.148;11.542;2024-03-23T04:52:15;2.47;;;1.80;;
45011;SDS011;63444;48.148;11.542;2024-03-23T04:54:42;2.20;;;1.60;;
45011;SDS011;63444;48.148;11.542;2024-03-23T04:57:08;1.90;;;1.70;;
45011;SDS011;63444;48.148;11.542;2024-03-23T04:59:34;2.20;;;1.47;;
45011;SDS011;63444;48.148;11.542;2024-03-23T05:02:06;2.23;;;1.60;;
45011;SDS011;63444;48.148;11.542;2024-03-23T05:04:32;2.30;;;1.50;;
45011;SDS011;63444;48.148;11.542;2024-03-23T05:06:58;3.43;;;1.70;;
45011;SDS011;63444;48.148;11.542;2024-03-23T05:09:23;1.83;;;1.60;;
45011;SDS011;63444;48.148;11.542;2024-03-23T05:11:49;1.67;;;1.53;;
45011;SDS011;63444;48.148;11.542;2024-03-23T05:14:15;2.40;;;1.47;;
45011;SDS011;63444;48.148;11.542;2024-03-23T05:16:41;2.40;;;1.60;;
45011;SDS011;63444;48.148;11.542;2024-03-23T05:19:07;1.83;;;1.50;;
45011;SDS011;63444;48.148;11.542;2024-03-23T05:21:33;2.33;;;1.60;;
45011;SDS011;63444;48.148;11.542;2024-03-23T05:23:58;2.63;;;1.60;;
45011;SDS011;63444;48.148;11.542;2024-03-23T05:26:24;1.77;;;1.67;;
45011;SDS011;63444;48.148;11.542;2024-03-23T05:28:50;1.80;;;1.50;;
45011;SDS011;63444;48.148;11.542;2024-03-23T05:31:22;3.10;;;1.70;;
45011;SDS011;63444;48.148;11.542;2024-03-23T05:33:52;1.77;;;1.63;;
45011;SDS011;63444;48.148;11.542;2024-03-23T05:36:18;1.93;;;1.50;;
45011;SDS011;63444;48.148;11.542;2024-03-23T05:38:43;2.03;;;1.57;;
45011;SDS011;63444;48.148;11.542;2024-03-23T05:41:09;1.50;;;1.40;;
45011;SDS011;63444;48.148;11.542;2024-03-23T05:43:35;2.80;;;1.70;;
45011;SDS011;63444;48.148;11.542;2024-03-23T05:46:00;2.47;;;1.50;;
45011;SDS011;63444;48.148;11.542;2024-03-23T05:48:27;2.87;;;1.90;;
45011;SDS011;63444;48.148;11.542;2024-03-23T05:50:53;1.77;;;1.50;;
45011;SDS011;63444;48.148;11.542;2024-03-23T05:53:19;2.47;;;1.50;;
45011;SDS011;63444;48.148;11.542;2024-03-23T05:55:48;2.60;;;1.70;;
45011;SDS011;63444;48.148;11.542;2024-03-23T05:58:14;2.60;;;1.80;;
45011;SDS011;63444;48.148;11.542;2024-03-23T06:00:41;3.87;;;1.87;;
45011;SDS011;63444;48.148;11.542;2024-03-23T06:03:07;2.40;;;1.70;;
45011;SDS011;63444;48.148;11.542;2024-03-23T06:05:34;4.87;;;1.80;;
45011;SDS011;63444;48.148;11.542;2024-03-23T06:07:59;2.80;;;1.60;;
45011;SDS011;63444;48.148;11.542;2024-03-23T06:10:25;1.70;;;1.60;;
45011;SDS011;63444;48.148;11.542;2024-03-23T06:12:51;1.80;;;1.50;;
45011;SDS011;63444;48.148;11.542;2024-03-23T06:15:19;2.10;;;1.50;;
45011;SDS011;63444;48.148;11.542;2024-03-23T06:17:45;1.50;;;1.40;;
45011;SDS011;63444;48.148;11.542;2024-03-23T06:20:11;3.13;;;1.60;;
45011;SDS011;63444;48.148;11.542;2024-03-23T06:22:38;2.63;;;1.57;;
45011;SDS011;63444;48.148;11.542;2024-03-23T06:25:04;2.00;;;1.60;;
45011;SDS011;63444;48.148;11.542;2024-03-23T06:27:30;1.43;;;1.33;;
45011;SDS011;63444;48.148;11.542;2024-03-23T06:29:57;2.70;;;1.50;;
45011;SDS011;63444;48.148;11.542;2024-03-23T06:32:24;2.93;;;1.70;;
45011;SDS011;63444;48.148;11.542;2024-03-23T06:34:49;1.90;;;1.40;;
45011;SDS011;63444;48.148;11.542;2024-03-23T06:37:15;2.20;;;1.50;;
45011;SDS011;63444;48.148;11.542;2024-03-23T06:39:41;2.00;;;1.40;;
45011;SDS011;63444;48.148;11.542;2024-03-23T06:42:07;1.50;;;1.30;;
45011;SDS011;63444;48.148;11.542;2024-03-23T06:44:33;3.87;;;2.00;;
45011;SDS011;63444;48.148;11.542;2024-03-23T06:46:59;1.97;;;1.50;;
45011;SDS011;63444;48.148;11.542;2024-03-23T06:49:24;2.80;;;1.40;;
45011;SDS011;63444;48.148;11.542;2024-03-23T06:51:51;1.83;;;1.50;;
45011;SDS011;63444;48.148;11.542;2024-03-23T06:54:17;2.03;;;1.30;;
45011;SDS011;63444;48.148;11.542;2024-03-23T06:56:44;2.30;;;1.50;;
45011;SDS011;63444;48.148;11.542;2024-03-23T06:59:10;3.60;;;1.80;;
45011;SDS011;63444;48.148;11.542;2024-03-23T07:01:36;1.73;;;1.53;;
45011;SDS011;63444;48.148;11.542;2024-03-23T07:04:02;3.27;;;1.70;;
45011;SDS011;63444;48.148;11.542;2024-03-23T07:06:29;2.87;;;1.60;;
45011;SDS011;63444;48.148;11.542;2024-03-23T07:08:55;3.13;;;1.60;;
45011;SDS011;63444;48.148;11.542;2024-03-23T07:11:21;2.77;;;1.60;;
45011;SDS011;63444;48.148;11.542;2024-03-23T07:13:49;2.27;;;1.60;;
45011;SDS011;63444;48.148;11.542;2024-03-23T07:16:15;2.87;;;1.60;;
45011;SDS011;63444;48.148;11.542;2024-03-23T07:18:41;1.63;;;1.40;;
45011;SDS011;63444;48.148;11.542;2024-03-23T07:21:07;2.30;;;1.40;;
45011;SDS011;63444;48.148;11.542;2024-03-23T07:23:33;1.83;;;1.57;;
45011;SDS011;63444;48.148;11.542;2024-03-23T07:26:02;2.97;;;1.73;;
45011;SDS011;63444;48.148;11.542;2024-03-23T07:28:29;4.27;;;1.50;;
45011;SDS011;63444;48.148;11.542;2024-03-23T07:31:06;2.57;;;1.60;;
45011;SDS011;63444;48.148;11.542;2024-03-23T07:33:36;2.53;;;1.60;;
45011;SDS011;63444;48.148;11.542;2024-03-23T07:36:06;2.53;;;1.40;;
45011;SDS011;63444;48.148;11.542;2024-03-23T07:38:32;2.17;;;1.57;;
45011;SDS011;63444;48.148;11.542;2024-03-23T07:41:03;5.40;;;1.53;;
45011;SDS011;63444;48.148;11.542;2024-03-23T07:43:28;3.73;;;1.60;;
45011;SDS011;63444;48.148;11.542;2024-03-23T07:45:54;2.93;;;1.83;;
45011;SDS011;63444;48.148;11.542;2024-03-23T07:48:21;2.83;;;1.90;;
45011;SDS011;63444;48.148;11.542;2024-03-23T07:53:26;3.37;;;2.00;;
45011;SDS011;63444;48.148;11.542;2024-03-23T07:56:06;2.60;;;1.80;;
45011;SDS011;63444;48.148;11.542;2024-03-23T07:58:33;2.30;;;1.70;;
45011;SDS011;63444;48.148;11.542;2024-03-23T08:01:06;2.03;;;1.60;;
45011;SDS011;63444;48.148;11.542;2024-03-23T08:03:35;3.47;;;1.93;;
45011;SDS011;63444;48.148;11.542;2024-03-23T08:08:37;2.83;;;1.70;;
45011;SDS011;63444;48.148;11.542;2024-03-23T08:11:03;3.27;;;1.80;;
45011;SDS011;63444;48.148;11.542;2024-03-23T08:13:30;2.53;;;1.90;;
45011;SDS011;63444;48.148;11.542;2024-03-23T08:15:56;3.03;;;1.97;;
45011;SDS011;63444;48.148;11.542;2024-03-23T08:18:26;5.07;;;2.30;;
45011;SDS011;63444;48.148;11.542;2024-03-23T08:21:01;2.23;;;2.00;;
45011;SDS011;63444;48.148;11.542;2024-03-23T08:23:28;2.97;;;2.20;;
45011;SDS011;63444;48.148;11.542;2024-03-23T08:26:02;4.00;;;2.10;;
45011;SDS011;63444;48.148;11.542;2024-03-23T08:28:29;3.33;;;1.90;;
45011;SDS011;63444;48.148;11.542;2024-03-23T08:30:55;3.63;;;2.43;;
45011;SDS011;63444;48.148;11.542;2024-03-23T08:33:22;3.53;;;2.10;;
45011;SDS011;63444;48.148;11.542;2024-03-23T08:35:58;3.43;;;2.07;;
45011;SDS011;63444;48.148;11.542;2024-03-23T08:38:26;2.93;;;2.00;;
45011;SDS011;63444;48.148;11.542;2024-03-23T08:41:05;2.33;;;1.73;;
45011;SDS011;63444;48.148;11.542;2024-03-23T08:43:41;3.07;;;1.90;;
45011;SDS011;63444;48.148;11.542;2024-03-23T08:46:08;2.40;;;1.77;;
45011;SDS011;63444;48.148;11.542;2024-03-23T08:48:38;3.10;;;2.00;;
45011;SDS011;63444;48.148;11.542;2024-03-23T08:51:05;2.87;;;1.53;;
45011;SDS011;63444;48.148;11.542;2024-03-23T08:53:33;2.53;;;2.03;;
45011;SDS011;63444;48.148;11.542;2024-03-23T08:56:00;2.13;;;1.93;;
45011;SDS011;63444;48.148;11.542;2024-03-23T08:58:26;2.20;;;2.00;;
45011;SDS011;63444;48.148;11.542;2024-03-23T09:00:54;1.93;;;1.83;;
45011;SDS011;63444;48.148;11.542;2024-03-23T09:03:24;2.43;;;1.80;;
45011;SDS011;63444;48.148;11.542;2024-03-23T09:05:50;2.77;;;2.00;;
45011;SDS011;63444;48.148;11.542;2024-03-23T09:08:17;2.57;;;2.00;;
45011;SDS011;63444;48.148;11.542;2024-03-23T09:10:43;1.87;;;1.77;;
45011;SDS011;63444;48.148;11.542;2024-03-23T09:13:09;2.43;;;2.23;;
45011;SDS011;63444;48.148;11.542;2024-03-23T09:15:35;3.30;;;2.00;;
45011;SDS011;63444;48.148;11.542;2024-03-23T09:18:03;2.50;;;2.23;;
45011;SDS011;63444;48.148;11.542;2024-03-23T09:20:29;2.73;;;2.40;;
45011;SDS011;63444;48.148;11.542;2024-03-23T09:22:57;2.40;;;2.20;;
45011;SDS011;63444;48.148;11.542;2024-03-23T09:25:23;2.90;;;2.30;;
45011;SDS011;63444;48.148;11.542;2024-03-23T09:27:49;2.97;;;2.20;;
45011;SDS011;63444;48.148;11.542;2024-03-23T09:30:16;2.60;;;2.40;;
45011;SDS011;63444;48.148;11.542;2024-03-23T09:32:45;2.40;;;2.20;;
45011;SDS011;63444;48.148;11.542;2024-03-23T09:35:11;2.30;;;2.10;;
45011;SDS011;63444;48.148;11.542;2024-03-23T09:37:40;2.90;;;2.60;;
45011;SDS011;63444;48.148;11.542;2024-03-23T09:40:13;2.83;;;2.13;;
45011;SDS011;63444;48.148;11.542;2024-03-23T09:42:39;2.97;;;1.90;;
45011;SDS011;63444;48.148;11.542;2024-03-23T09:45:11;1.60;;;1.50;;
45011;SDS011;63444;48.148;11.542;2024-03-23T09:47:44;2.67;;;1.60;;
45011;SDS011;63444;48.148;11.542;2024-03-23T09:50:12;1.40;;;1.30;;
45011;SDS011;63444;48.148;11.542;2024-03-23T09:52:38;1.63;;;1.50;;
45011;SDS011;63444;48.148;11.542;2024-03-23T09:55:04;1.40;;;1.30;;
45011;SDS011;63444;48.148;11.542;2024-03-23T09:57:30;1.40;;;1.30;;
45011;SDS011;63444;48.148;11.542;2024-03-23T09:59:57;1.20;;;1.20;;
45011;SDS011;63444;48.148;11.542;2024-03-23T10:02:25;1.57;;;1.40;;
45011;SDS011;63444;48.148;11.542;2024-03-23T10:04:51;1.37;;;1.27;;
45011;SDS011;63444;48.148;11.542;2024-03-23T10:07:20;1.50;;;1.40;;
45011;SDS011;63444;48.148;11.542;2024-03-23T10:09:50;1.97;;;1.23;;
45011;SDS011;63444;48.148;11.542;2024-03-23T10:12:18;1.20;;;1.10;;
45011;SDS011;63444;48.148;11.542;2024-03-23T10:14:45;1.33;;;1.17;;
45011;SDS011;63444;48.148;11.542;2024-03-23T10:19:50;1.63;;;1.30;;
45011;SDS011;63444;48.148;11.542;2024-03-23T10:22:21;1.57;;;1.40;;
45011;SDS011;63444;48.148;11.542;2024-03-23T10:24:50;1.50;;;1.40;;
45011;SDS011;63444;48.148;11.542;2024-03-23T10:27:17;1.30;;;1.20;;
45011;SDS011;63444;48.148;11.542;2024-03-23T10:29:45;1.63;;;1.53;;
45011;SDS011;63444;48.148;11.542;2024-03-23T10:32:11;2.87;;;1.60;;
45011;SDS011;63444;48.148;11.542;2024-03-23T10:34:39;1.77;;;1.20;;
45011;SDS011;63444;48.148;11.542;2024-03-23T10:37:05;1.13;;;1.10;;
45011;SDS011;63444;48.148;11.542;2024-03-23T10:39:32;1.00;;;1.00;;
45011;SDS011;63444;48.148;11.542;2024-03-23T10:42:08;1.70;;;1.60;;
45011;SDS011;63444;48.148;11.542;2024-03-23T10:44:37;1.30;;;1.20;;
45011;SDS011;63444;48.148;11.542;2024-03-23T10:47:03;1.87;;;1.00;;
45011;SDS011;63444;48.148;11.542;2024-03-23T10:49:30;1.30;;;1.10;;
45011;SDS011;63444;48.148;11.542;2024-03-23T10:52:01;1.57;;;0.90;;
45011;SDS011;63444;48.148;11.542;2024-03-23T10:54:30;0.80;;;0.80;;
45011;SDS011;63444;48.148;11.542;2024-03-23T10:57:05;0.80;;;0.80;;
45011;SDS011;63444;48.148;11.542;2024-03-23T10:59:35;0.93;;;0.80;;
45011;SDS011;63444;48.148;11.542;2024-03-23T11:02:02;1.10;;;0.87;;
45011;SDS011;63444;48.148;11.542;2024-03-23T11:04:38;2.30;;;0.90;;
45011;SDS011;63444;48.148;11.542;2024-03-23T11:09:48;3.03;;;1.10;;
45011;SDS011;63444;48.148;11.542;2024-03-23T11:14:51;1.33;;;0.90;;
45011;SDS011;63444;48.148;11.542;2024-03-23T11:17:25;1.03;;;0.97;;
45011;SDS011;63444;48.148;11.542;2024-03-23T11:19:55;1.13;;;1.13;;
45011;SDS011;63444;48.148;11.542;2024-03-23T11:25:23;1.57;;;1.17;;
45011;SDS011;63444;48.148;11.542;2024-03-23T11:27:50;2.23;;;1.00;;
45011;SDS011;63444;48.148;11.542;2024-03-23T11:30:21;1.27;;;1.00;;
45011;SDS011;63444;48.148;11.542;2024-03-23T11:32:51;1.30;;;1.20;;
45011;SDS011;63444;48.148;11.542;2024-03-23T11:35:26;1.60;;;1.13;;
45011;SDS011;63444;48.148;11.542;2024-03-23T11:40:41;1.87;;;1.17;;
45011;SDS011;63444;48.148;11.542;2024-03-23T11:43:08;1.20;;;1.10;;
45011;SDS011;63444;48.148;11.542;2024-03-23T11:45:59;1.17;;;1.10;;
45011;SDS011;63444;48.148;11.542;2024-03-23T11:48:28;1.63;;;1.30;;
45011;SDS011;63444;48.148;11.542;2024-03-23T11:50:54;1.53;;;1.30;;
45011;SDS011;63444;48.148;11.542;2024-03-23T11:53:25;2.60;;;1.33;;
45011;SDS011;63444;48.148;11.542;2024-03-23T11:55:55;1.83;;;1.20;;
45011;SDS011;63444;48.148;11.542;2024-03-23T11:58:23;1.37;;;1.20;;
45011;SDS011;63444;48.148;11.542;2024-03-23T12:03:25;3.17;;;1.90;;
45011;SDS011;63444;48.148;11.542;2024-03-23T12:05:53;2.17;;;1.40;;
45011;SDS011;63444;48.148;11.542;2024-03-23T12:08:33;1.63;;;1.40;;
45011;SDS011;63444;48.148;11.542;2024-03-23T12:11:07;1.67;;;1.30;;
45011;SDS011;63444;48.148;11.542;2024-03-23T12:13:40;1.73;;;1.60;;
45011;SDS011;63444;48.148;11.542;2024-03-23T12:16:12;2.77;;;1.70;;
45011;SDS011;63444;48.148;11.542;2024-03-23T12:18:48;2.00;;;1.40;;
45011;SDS011;63444;48.148;11.542;2024-03-23T12:21:16;2.93;;;1.63;;
45011;SDS011;63444;48.148;11.542;2024-03-23T12:23:42;2.77;;;1.70;;
45011;SDS011;63444;48.148;11.542;2024-03-23T12:26:10;1.97;;;1.67;;
45011;SDS011;63444;48.148;11.542;2024-03-23T12:28:37;2.80;;;1.73;;
45011;SDS011;63444;48.148;11.542;2024-03-23T12:31:04;2.20;;;1.40;;
45011;SDS011;63444;48.148;11.542;2024-03-23T12:33:30;3.13;;;2.27;;
45011;SDS011;63444;48.148;11.542;2024-03-23T12:35:56;2.17;;;1.70;;
45011;SDS011;63444;48.148;11.542;2024-03-23T12:38:22;2.90;;;1.77;;
45011;SDS011;63444;48.148;11.542;2024-03-23T12:40:48;2.40;;;1.57;;
45011;SDS011;63444;48.148;11.542;2024-03-23T12:43:15;5.20;;;1.97;;
45011;SDS011;63444;48.148;11.542;2024-03-23T12:45:41;2.53;;;1.80;;
45011;SDS011;63444;48.148;11.542;2024-03-23T12:48:11;4.23;;;1.80;;
45011;SDS011;63444;48.148;11.542;2024-03-23T12:50:36;2.83;;;1.80;;
45011;SDS011;63444;48.148;11.542;2024-03-23T12:53:02;2.90;;;1.77;;
45011;SDS011;63444;48.148;11.542;2024-03-23T12:55:28;3.43;;;1.90;;
45011;SDS011;63444;48.148;11.542;2024-03-23T12:57:54;2.63;;;1.50;;
45011;SDS011;63444;48.148;11.542;2024-03-23T13:00:20;2.33;;;1.73;;
45011;SDS011;63444;48.148;11.542;2024-03-23T13:02:45;3.30;;;1.80;;
45011;SDS011;63444;48.148;11.542;2024-03-23T13:05:11;1.70;;;1.60;;
45011;SDS011;63444;48.148;11.542;2024-03-23T13:07:37;3.00;;;1.63;;
45011;SDS011;63444;48.148;11.542;2024-03-23T13:10:03;2.10;;;1.90;;
45011;SDS011;63444;48.148;11.542;2024-03-23T13:12:31;4.40;;;1.87;;
45011;SDS011;63444;48.148;11.542;2024-03-23T13:14:57;3.70;;;1.90;;
45011;SDS011;63444;48.148;11.542;2024-03-23T13:17:24;3.83;;;2.07;;
45011;SDS011;63444;48.148;11.542;2024-03-23T13:19:52;3.80;;;2.03;;
45011;SDS011;63444;48.148;11.542;2024-03-23T13:22:18;4.23;;;1.93;;
45011;SDS011;63444;48.148;11.542;2024-03-23T13:24:43;4.60;;;2.17;;
45011;SDS011;63444;48.148;11.542;2024-03-23T13:27:09;4.83;;;2.07;;
45011;SDS011;63444;48.148;11.542;2024-03-23T13:29:36;6.23;;;2.10;;
45011;SDS011;63444;48.148;11.542;2024-03-23T13:32:04;3.40;;;1.80;;
45011;SDS011;63444;48.148;11.542;2024-03-23T13:34:31;3.33;;;2.20;;
45011;SDS011;63444;48.148;11.542;2024-03-23T13:36:58;3.10;;;2.00;;
45011;SDS011;63444;48.148;11.542;2024-03-23T13:39:24;5.00;;;2.13;;
45011;SDS011;63444;48.148;11.542;2024-03-23T13:41:52;4.67;;;2.20;;
45011;SDS011;63444;48.148;11.542;2024-03-23T13:44:19;3.63;;;1.63;;
45011;SDS011;63444;48.148;11.542;2024-03-23T13:46:45;3.70;;;2.00;;
45011;SDS011;63444;48.148;11.542;2024-03-23T13:49:33;3.60;;;2.37;;
45011;SDS011;63444;48.148;11.542;2024-03-23T13:51:59;5.27;;;2.47;;
45011;SDS011;63444;48.148;11.542;2024-03-23T13:54:25;5.07;;;2.40;;
45011;SDS011;63444;48.148;11.542;2024-03-23T13:56:52;5.10;;;2.60;;
45011;SDS011;63444;48.148;11.542;2024-03-23T13:59:22;4.93;;;2.77;;
45011;SDS011;63444;48.148;11.542;2024-03-23T14:01:50;6.47;;;3.00;;
45011;SDS011;63444;48.148;11.542;2024-03-23T14:04:16;5.30;;;3.40;;
45011;SDS011;63444;48.148;11.542;2024-03-23T14:06:42;5.60;;;3.27;;
45011;SDS011;63444;48.148;11.542;2024-03-23T14:09:11;6.87;;;3.27;;
45011;SDS011;63444;48.148;11.542;2024-03-23T14:11:37;4.73;;;2.90;;
45011;SDS011;63444;48.148;11.542;2024-03-23T14:14:03;7.07;;;3.00;;
45011;SDS011;63444;48.148;11.542;2024-03-23T14:16:32;5.50;;;2.80;;
45011;SDS011;63444;48.148;11.542;2024-03-23T14:18:58;3.33;;;2.60;;
45011;SDS011;63444;48.148;11.542;2024-03-23T14:21:25;4.93;;;2.67;;
45011;SDS011;63444;48.148;11.542;2024-03-23T14:23:51;5.37;;;2.70;;
45011;SDS011;63444;48.148;11.542;2024-03-23T14:26:18;5.23;;;3.00;;
45011;SDS011;63444;48.148;11.542;2024-03-23T14:28:45;6.17;;;3.17;;
45011;SDS011;63444;48.148;11.542;2024-03-23T14:31:11;6.80;;;2.73;;
45011;SDS011;63444;48.148;11.542;2024-03-23T14:33:37;5.27;;;2.73;;
45011;SDS011;63444;48.148;11.542;2024-03-23T14:36:03;5.73;;;3.37;;
45011;SDS011;63444;48.148;11.542;2024-03-23T14:38:30;5.10;;;2.20;;
45011;SDS011;63444;48.148;11.542;2024-03-23T14:40:59;3.87;;;2.07;;
45011;SDS011;63444;48.148;11.542;2024-03-23T14:43:25;3.30;;;2.17;;
45011;SDS011;63444;48.148;11.542;2024-03-23T14:48:38;4.80;;;1.90;;
45011;SDS011;63444;48.148;11.542;2024-03-23T14:51:04;3.00;;;1.70;;
45011;SDS011;63444;48.148;11.542;2024-03-23T14:53:40;6.30;;;2.33;;
45011;SDS011;63444;48.148;11.542;2024-03-23T14:56:10;5.97;;;2.60;;
45011;SDS011;63444;48.148;11.542;2024-03-23T14:58:38;6.90;;;2.27;;
45011;SDS011;63444;48.148;11.542;2024-03-23T15:01:04;5.77;;;2.20;;
45011;SDS011;63444;48.148;11.542;2024-03-23T15:03:34;5.90;;;2.00;;
45011;SDS011;63444;48.148;11.542;2024-03-23T15:06:01;4.23;;;1.83;;
45011;SDS011;63444;48.148;11.542;2024-03-23T15:08:27;4.03;;;1.70;;
45011;SDS011;63444;48.148;11.542;2024-03-23T15:10:53;4.70;;;1.90;;
45011;SDS011;63444;48.148;11.542;2024-03-23T15:13:19;3.00;;;1.60;;
45011;SDS011;63444;48.148;11.542;2024-03-23T15:15:47;4.10;;;1.70;;
45011;SDS011;63444;48.148;11.542;2024-03-23T15:18:14;3.40;;;1.83;;
45011;SDS011;63444;48.148;11.542;2024-03-23T15:20:53;6.10;;;1.90;;
45011;SDS011;63444;48.148;11.542;2024-03-23T15:23:19;3.00;;;2.00;;
45011;SDS011;63444;48.148;11.542;2024-03-23T15:25:45;3.83;;;2.00;;
45011;SDS011;63444;48.148;11.542;2024-03-23T15:28:12;4.60;;;1.80;;
45011;SDS011;63444;48.148;11.542;2024-03-23T15:30:38;4.13;;;1.83;;
45011;SDS011;63444;48.148;11.542;2024-03-23T15:33:04;5.87;;;2.17;;
45011;SDS011;63444;48.148;11.542;2024-03-23T15:35:30;6.37;;;2.00;;
45011;SDS011;63444;48.148;11.542;2024-03-23T15:37:57;4.30;;;2.20;;
45011;SDS011;63444;48.148;11.542;2024-03-23T15:40:23;2.87;;;2.10;;
45011;SDS011;63444;48.148;11.542;2024-03-23T15:42:48;5.37;;;2.20;;
45011;SDS011;63444;48.148;11.542;2024-03-23T15:45:15;4.20;;;2.00;;
45011;SDS011;63444;48.148;11.542;2024-03-23T15:47:41;4.37;;;2.10;;
45011;SDS011;63444;48.148;11.542;2024-03-23T15:50:07;5.40;;;2.00;;
45011;SDS011;63444;48.148;11.542;2024-03-23T15:52:36;4.73;;;2.40;;